createdAt,value
2024-03-16T00:00:35.959Z,84.98
2024-03-16T00:01:28.587Z,84.98
2024-03-16T00:02:23.876Z,85.05
2024-03-16T00:03:18.907Z,85.11
2024-03-16T00:04:14.179Z,85.11
2024-03-16T00:05:09.264Z,85.18
2024-03-16T00:06:04.315Z,85.36
2024-03-16T00:06:59.458Z,85.56
2024-03-16T00:07:54.806Z,85.68
2024-03-16T00:08:49.782Z,85.89
2024-03-16T00:09:44.831Z,85.95
2024-03-16T00:10:40.086Z,86.04
2024-03-16T00:11:35.143Z,86.18
2024-03-16T00:12:30.616Z,86.23
2024-03-16T00:13:25.612Z,86.39
2024-03-16T00:14:20.618Z,86.51
2024-03-16T00:15:15.687Z,86.61
2024-03-16T00:16:10.913Z,86.68
2024-03-16T00:17:06.904Z,86.83
2024-03-16T00:18:01.421Z,86.96
2024-03-16T00:18:56.739Z,87.07
2024-03-16T00:19:51.849Z,87.07
2024-03-16T00:20:46.901Z,87.03
2024-03-16T00:21:42.076Z,87.03
2024-03-16T00:22:37.028Z,87.08
2024-03-16T00:23:32.272Z,87.13
2024-03-16T00:24:27.655Z,87.17
2024-03-16T00:25:22.972Z,87.23
2024-03-16T00:26:18.030Z,87.31
2024-03-16T00:27:13.164Z,87.35
2024-03-16T00:28:08.365Z,87.40
2024-03-16T00:29:03.676Z,87.58
2024-03-16T00:29:58.693Z,87.72
2024-03-16T00:30:54.048Z,87.75
2024-03-16T00:31:48.961Z,87.95
2024-03-16T00:32:44.223Z,88.12
2024-03-16T00:33:39.816Z,88.28
2024-03-16T00:34:34.652Z,88.40
2024-03-16T00:35:29.833Z,88.49
2024-03-16T00:36:25.155Z,88.53
2024-03-16T00:37:20.243Z,88.57
2024-03-16T00:38:15.527Z,88.61
2024-03-16T00:39:10.740Z,88.65
2024-03-16T00:40:05.886Z,88.65
2024-03-16T00:41:00.852Z,88.66
2024-03-16T00:41:56.109Z,88.74
2024-03-16T00:42:51.187Z,88.80
2024-03-16T00:43:46.567Z,88.83
2024-03-16T00:44:41.499Z,88.87
2024-03-16T00:45:36.671Z,88.89
2024-03-16T00:46:31.962Z,88.89
2024-03-16T00:47:27.179Z,88.92
2024-03-16T00:48:22.764Z,88.99
2024-03-16T00:49:17.976Z,89.11
2024-03-16T00:50:13.088Z,89.23
2024-03-16T00:51:08.173Z,89.25
2024-03-16T00:52:03.409Z,89.31
2024-03-16T00:52:58.446Z,89.35
2024-03-16T00:53:53.838Z,89.38
2024-03-16T00:54:48.920Z,89.36
2024-03-16T00:55:44.117Z,89.39
2024-03-16T00:56:39.369Z,89.44
2024-03-16T00:57:35.851Z,89.43
2024-03-16T00:58:30.002Z,89.42
2024-03-16T00:59:25.208Z,89.40
2024-03-16T01:00:20.330Z,89.32
2024-03-16T01:01:15.711Z,89.36
2024-03-16T01:02:10.917Z,89.43
2024-03-16T01:03:05.902Z,89.43
2024-03-16T01:04:01.300Z,89.39
2024-03-16T01:04:56.507Z,89.34
2024-03-16T01:05:51.778Z,89.37
2024-03-16T01:06:46.760Z,89.38
2024-03-16T01:07:42.362Z,89.42
2024-03-16T01:08:37.689Z,89.34
2024-03-16T01:09:33.175Z,89.25
2024-03-16T01:10:28.229Z,89.17
2024-03-16T01:11:23.523Z,89.11
2024-03-16T01:12:18.499Z,89.03
2024-03-16T01:13:13.649Z,88.97
2024-03-16T01:14:08.761Z,89.00
2024-03-16T01:15:04.109Z,89.07
2024-03-16T01:15:59.621Z,89.00
2024-03-16T01:16:54.938Z,88.90
2024-03-16T01:17:50.224Z,88.89
2024-03-16T01:18:45.498Z,88.94
2024-03-16T01:19:40.937Z,88.90
2024-03-16T01:20:36.166Z,88.79
2024-03-16T01:21:31.301Z,88.68
2024-03-16T01:22:26.726Z,88.76
2024-03-16T01:23:22.133Z,88.84
2024-03-16T01:24:17.791Z,88.84
2024-03-16T01:25:12.868Z,88.76
2024-03-16T01:26:08.321Z,88.71
2024-03-16T01:27:03.465Z,88.68
2024-03-16T01:27:58.984Z,88.65
2024-03-16T01:28:54.530Z,88.76
2024-03-16T01:29:49.622Z,88.79
2024-03-16T01:30:44.638Z,88.86
2024-03-16T01:31:39.711Z,88.83
2024-03-16T01:32:35.010Z,88.88
2024-03-16T01:33:30.497Z,88.86
2024-03-16T01:34:25.562Z,88.87
2024-03-16T01:35:20.527Z,88.86
2024-03-16T01:36:15.600Z,88.92
2024-03-16T01:37:11.029Z,88.97
2024-03-16T01:38:05.931Z,88.92
2024-03-16T01:39:01.417Z,89.00
2024-03-16T01:39:56.991Z,88.96
2024-03-16T01:40:51.908Z,88.93
2024-03-16T01:41:46.991Z,88.93
2024-03-16T01:42:42.287Z,89.03
2024-03-16T01:43:37.485Z,89.08
2024-03-16T01:44:32.616Z,89.07
2024-03-16T01:45:28.141Z,89.09
2024-03-16T01:46:23.353Z,89.21
2024-03-16T01:47:18.473Z,89.19
2024-03-16T01:48:14.654Z,89.16
2024-03-16T01:49:09.421Z,89.27
2024-03-16T01:50:03.960Z,89.30
2024-03-16T01:50:59.009Z,89.32
2024-03-16T01:51:54.201Z,89.33
2024-03-16T01:52:49.531Z,89.38
2024-03-16T01:53:44.631Z,89.51
2024-03-16T01:54:39.715Z,89.54
2024-03-16T01:55:34.772Z,89.54
2024-03-16T01:56:30.645Z,89.60
2024-03-16T01:57:25.026Z,89.76
2024-03-16T01:58:19.989Z,89.87
2024-03-16T01:59:15.143Z,89.95
2024-03-16T02:00:10.142Z,89.97
2024-03-16T02:01:05.283Z,89.97
2024-03-16T02:02:00.393Z,89.98
2024-03-16T02:02:55.336Z,90.03
2024-03-16T02:03:50.672Z,90.00
2024-03-16T02:04:45.515Z,90.08
2024-03-16T02:05:40.611Z,90.15
2024-03-16T02:06:35.626Z,90.23
2024-03-16T02:07:30.746Z,90.26
2024-03-16T02:08:26.282Z,90.34
2024-03-16T02:09:23.818Z,90.27
2024-03-16T02:10:18.076Z,90.37
2024-03-16T02:11:13.070Z,90.43
2024-03-16T02:12:08.011Z,90.39
2024-03-16T02:13:03.179Z,90.40
2024-03-16T02:13:58.083Z,90.46
2024-03-16T02:14:53.366Z,90.43
2024-03-16T02:15:48.242Z,90.48
2024-03-16T02:16:43.342Z,90.44
2024-03-16T02:17:38.427Z,90.51
2024-03-16T02:18:34.529Z,90.60
2024-03-16T02:19:29.761Z,90.64
2024-03-16T02:20:25.717Z,90.72
2024-03-16T02:21:20.806Z,90.70
2024-03-16T02:22:16.438Z,90.75
2024-03-16T02:23:12.043Z,90.76
2024-03-16T02:24:07.161Z,90.83
2024-03-16T02:25:02.978Z,90.78
2024-03-16T02:25:58.340Z,90.83
2024-03-16T02:26:53.637Z,90.80
2024-03-16T02:27:49.391Z,90.77
2024-03-16T02:28:44.823Z,90.74
2024-03-16T02:29:40.478Z,90.77
2024-03-16T02:30:36.229Z,90.75
2024-03-16T02:31:31.341Z,90.72
2024-03-16T02:32:27.362Z,90.73
2024-03-16T02:33:22.561Z,90.79
2024-03-16T02:34:17.630Z,90.83
2024-03-16T02:35:13.940Z,90.79
2024-03-16T02:36:08.842Z,90.76
2024-03-16T02:37:04.725Z,90.78
2024-03-16T02:38:00.098Z,90.77
2024-03-16T02:38:55.145Z,90.74
2024-03-16T02:39:51.024Z,90.74
2024-03-16T02:40:46.401Z,90.71
2024-03-16T02:41:41.493Z,90.69
2024-03-16T02:42:38.119Z,90.70
2024-03-16T02:43:33.392Z,90.65
2024-03-16T02:44:29.282Z,90.61
2024-03-16T02:45:24.372Z,90.59
2024-03-16T02:46:19.671Z,90.53
2024-03-16T02:47:15.392Z,90.49
2024-03-16T02:48:10.854Z,90.51
2024-03-16T02:49:07.219Z,90.47
2024-03-16T02:50:02.090Z,90.47
2024-03-16T02:50:57.184Z,90.53
2024-03-16T02:51:53.189Z,90.55
2024-03-16T02:52:48.534Z,90.55
2024-03-16T02:53:43.849Z,90.52
2024-03-16T02:54:39.992Z,90.47
2024-03-16T02:55:35.094Z,90.46
2024-03-16T02:56:31.154Z,90.42
2024-03-16T02:57:26.253Z,90.41
2024-03-16T02:58:21.531Z,90.46
2024-03-16T02:59:17.462Z,90.47
2024-03-16T03:00:12.895Z,90.46
2024-03-16T03:01:08.136Z,90.49
2024-03-16T03:02:03.181Z,90.48
2024-03-16T03:02:59.502Z,90.49
2024-03-16T03:03:54.649Z,90.39
2024-03-16T03:04:49.945Z,90.34
2024-03-16T03:05:45.749Z,90.35
2024-03-16T03:06:40.920Z,90.29
2024-03-16T03:07:36.842Z,90.27
2024-03-16T03:08:32.043Z,90.23
2024-03-16T03:09:27.541Z,90.22
2024-03-16T03:10:23.156Z,90.23
2024-03-16T03:11:18.189Z,90.26
2024-03-16T03:12:13.669Z,90.26
2024-03-16T03:13:09.651Z,90.35
2024-03-16T03:14:04.985Z,90.38
2024-03-16T03:15:00.877Z,90.46
2024-03-16T03:15:55.991Z,90.48
2024-03-16T03:16:51.206Z,90.48
2024-03-16T03:17:47.022Z,90.49
2024-03-16T03:18:42.311Z,90.42
2024-03-16T03:19:37.325Z,90.45
2024-03-16T03:20:32.451Z,90.48
2024-03-16T03:21:27.612Z,90.50
2024-03-16T03:22:23.011Z,90.54
2024-03-16T03:23:18.392Z,90.57
2024-03-16T03:24:13.660Z,90.63
2024-03-16T03:25:09.695Z,90.70
2024-03-16T03:26:05.127Z,90.74
2024-03-16T03:27:00.654Z,90.77
2024-03-16T03:27:55.649Z,90.77
2024-03-16T03:28:50.781Z,90.87
2024-03-16T03:29:45.925Z,90.78
2024-03-16T03:30:41.650Z,90.81
2024-03-16T03:31:35.989Z,90.86
2024-03-16T03:32:31.081Z,90.98
2024-03-16T03:33:26.139Z,91.05
2024-03-16T03:34:21.143Z,91.16
2024-03-16T03:35:16.276Z,91.17
2024-03-16T03:36:11.192Z,91.23
2024-03-16T03:37:06.159Z,91.23
2024-03-16T03:38:01.312Z,91.25
2024-03-16T03:38:56.356Z,91.26
2024-03-16T03:39:51.456Z,91.25
2024-03-16T03:40:46.470Z,91.24
2024-03-16T03:41:42.147Z,91.23
2024-03-16T03:42:36.698Z,91.13
2024-03-16T03:43:31.837Z,91.24
2024-03-16T03:44:26.771Z,91.21
2024-03-16T03:45:22.876Z,91.25
2024-03-16T03:46:16.874Z,91.26
2024-03-16T03:47:12.001Z,91.29
2024-03-16T03:48:06.955Z,91.28
2024-03-16T03:49:02.129Z,91.28
2024-03-16T03:49:57.406Z,91.28
2024-03-16T03:50:52.438Z,91.38
2024-03-16T03:51:48.934Z,91.41
2024-03-16T03:52:44.230Z,91.40
2024-03-16T03:53:39.995Z,91.39
2024-03-16T03:54:35.339Z,91.37
2024-03-16T03:55:30.586Z,91.39
2024-03-16T03:56:26.243Z,91.42
2024-03-16T03:57:21.373Z,91.45
2024-03-16T03:58:17.301Z,91.51
2024-03-16T03:59:12.275Z,91.51
2024-03-16T04:00:07.602Z,91.55
2024-03-16T04:01:03.543Z,91.57
2024-03-16T04:01:58.866Z,91.57
2024-03-16T04:02:53.941Z,91.57
2024-03-16T04:03:50.526Z,91.60
2024-03-16T04:04:45.797Z,91.57
2024-03-16T04:05:41.600Z,91.58
2024-03-16T04:06:36.952Z,91.60
2024-03-16T04:07:31.983Z,91.57
2024-03-16T04:08:27.970Z,91.57
2024-03-16T04:09:23.157Z,91.57
2024-03-16T04:10:19.080Z,91.57
2024-03-16T04:11:14.197Z,91.64
2024-03-16T04:12:09.601Z,91.62
2024-03-16T04:13:05.116Z,91.67
2024-03-16T04:14:00.366Z,91.68
2024-03-16T04:14:55.568Z,91.66
2024-03-16T04:15:51.922Z,91.67
2024-03-16T04:16:47.116Z,91.68
2024-03-16T04:17:42.932Z,91.70
2024-03-16T04:18:38.114Z,91.68
2024-03-16T04:19:33.782Z,91.72
2024-03-16T04:20:29.193Z,91.73
2024-03-16T04:21:24.327Z,91.74
2024-03-16T04:22:20.214Z,91.70
2024-03-16T04:23:15.241Z,91.70
2024-03-16T04:24:10.561Z,91.72
2024-03-16T04:25:06.469Z,91.72
2024-03-16T04:26:01.510Z,91.68
2024-03-16T04:26:56.705Z,91.64
2024-03-16T04:27:53.082Z,91.67
2024-03-16T04:28:48.127Z,91.67
2024-03-16T04:29:44.234Z,91.62
2024-03-16T04:30:39.471Z,91.62
2024-03-16T04:31:35.093Z,91.64
2024-03-16T04:32:30.658Z,91.65
2024-03-16T04:33:25.748Z,91.59
2024-03-16T04:34:21.606Z,91.55
2024-03-16T04:35:16.785Z,91.52
2024-03-16T04:36:12.131Z,91.48
2024-03-16T04:37:08.143Z,91.49
2024-03-16T04:38:03.164Z,91.43
2024-03-16T04:38:58.447Z,91.46
2024-03-16T04:39:54.619Z,91.49
2024-03-16T04:40:50.632Z,91.46
2024-03-16T04:41:45.489Z,91.51
2024-03-16T04:42:40.848Z,91.46
2024-03-16T04:43:36.223Z,91.48
2024-03-16T04:44:31.809Z,91.43
2024-03-16T04:45:27.213Z,91.49
2024-03-16T04:46:23.482Z,91.47
2024-03-16T04:47:18.044Z,91.48
2024-03-16T04:48:13.261Z,91.48
2024-03-16T04:49:09.587Z,91.46
2024-03-16T04:50:04.789Z,91.45
2024-03-16T04:50:59.917Z,91.44
2024-03-16T04:51:55.260Z,91.43
2024-03-16T04:52:51.032Z,91.44
2024-03-16T04:53:46.492Z,91.39
2024-03-16T04:54:41.770Z,91.36
2024-03-16T04:55:37.695Z,91.37
2024-03-16T04:56:32.801Z,91.34
2024-03-16T04:57:28.573Z,91.33
2024-03-16T04:58:23.726Z,91.28
2024-03-16T04:59:18.879Z,91.25
2024-03-16T05:00:14.738Z,91.26
2024-03-16T05:01:09.800Z,91.23
2024-03-16T05:02:05.017Z,91.20
2024-03-16T05:03:01.120Z,91.13
2024-03-16T05:03:56.445Z,91.08
2024-03-16T05:04:52.294Z,91.07
2024-03-16T05:05:47.466Z,91.01
2024-03-16T05:06:42.594Z,90.91
2024-03-16T05:07:38.273Z,90.88
2024-03-16T05:08:33.567Z,90.82
2024-03-16T05:09:28.723Z,90.79
2024-03-16T05:10:23.801Z,90.74
2024-03-16T05:11:18.891Z,90.70
2024-03-16T05:12:14.045Z,90.65
2024-03-16T05:13:09.307Z,90.65
2024-03-16T05:14:12.111Z,90.66
2024-03-16T05:15:00.722Z,90.65
2024-03-16T05:15:56.121Z,90.52
2024-03-16T05:16:51.868Z,90.48
2024-03-16T05:17:47.008Z,90.49
2024-03-16T05:18:43.292Z,90.49
2024-03-16T05:19:37.574Z,90.54
2024-03-16T05:20:32.704Z,90.50
2024-03-16T05:21:27.974Z,90.57
2024-03-16T05:22:24.136Z,90.54
2024-03-16T05:23:19.363Z,90.59
2024-03-16T05:24:14.591Z,90.62
2024-03-16T05:25:14.160Z,90.61
2024-03-16T05:26:09.228Z,90.65
2024-03-16T05:27:04.628Z,90.74
2024-03-16T05:27:59.666Z,90.72
2024-03-16T05:28:54.664Z,90.80
2024-03-16T05:29:49.632Z,90.85
2024-03-16T05:30:44.768Z,90.88
2024-03-16T05:31:40.157Z,90.91
2024-03-16T05:32:35.188Z,90.95
2024-03-16T05:33:30.492Z,91.01
2024-03-16T05:34:25.656Z,91.01
2024-03-16T05:35:20.692Z,91.02
2024-03-16T05:36:15.943Z,91.06
2024-03-16T05:37:11.339Z,91.06
2024-03-16T05:38:06.177Z,90.98
2024-03-16T05:39:01.170Z,90.93
2024-03-16T05:39:56.242Z,90.99
2024-03-16T05:40:51.180Z,91.00
2024-03-16T05:41:46.218Z,91.01
2024-03-16T05:42:41.498Z,91.00
2024-03-16T05:43:36.342Z,91.02
2024-03-16T05:44:31.438Z,91.05
2024-03-16T05:45:26.730Z,90.98
2024-03-16T05:46:22.118Z,91.07
2024-03-16T05:47:17.364Z,91.09
2024-03-16T05:48:12.571Z,91.03
2024-03-16T05:49:07.814Z,91.08
2024-03-16T05:50:03.117Z,91.10
2024-03-16T05:50:58.423Z,91.17
2024-03-16T05:51:54.245Z,91.22
2024-03-16T05:52:48.996Z,91.25
2024-03-16T05:53:44.299Z,91.25
2024-03-16T05:54:39.538Z,91.21
2024-03-16T05:55:34.862Z,91.22
2024-03-16T05:56:30.094Z,91.25
2024-03-16T05:57:25.346Z,91.25
2024-03-16T05:58:20.259Z,91.25
2024-03-16T05:59:15.278Z,91.31
2024-03-16T06:00:10.337Z,91.28
2024-03-16T06:01:05.791Z,91.21
2024-03-16T06:02:00.394Z,91.14
2024-03-16T06:02:55.440Z,91.08
2024-03-16T06:03:50.457Z,91.03
2024-03-16T06:04:45.551Z,90.99
2024-03-16T06:05:40.512Z,90.91
2024-03-16T06:06:35.673Z,90.84
2024-03-16T06:07:30.586Z,90.79
2024-03-16T06:08:25.621Z,90.74
2024-03-16T06:09:20.605Z,90.70
2024-03-16T06:10:15.698Z,90.66
2024-03-16T06:11:10.678Z,90.58
2024-03-16T06:12:05.840Z,90.57
2024-03-16T06:13:00.924Z,90.57
2024-03-16T06:13:56.180Z,90.51
2024-03-16T06:14:51.243Z,90.54
2024-03-16T06:15:46.414Z,90.50
2024-03-16T06:16:42.204Z,90.43
2024-03-16T06:17:37.198Z,90.49
2024-03-16T06:18:31.575Z,90.48
2024-03-16T06:19:26.663Z,90.42
2024-03-16T06:20:25.012Z,90.31
2024-03-16T06:21:17.437Z,90.35
2024-03-16T06:22:12.073Z,90.23
2024-03-16T06:23:06.923Z,90.27
2024-03-16T06:24:01.902Z,90.23
2024-03-16T06:24:57.052Z,90.23
2024-03-16T06:25:51.954Z,90.22
2024-03-16T06:26:47.183Z,90.15
2024-03-16T06:27:42.521Z,90.10
2024-03-16T06:28:37.642Z,90.09
2024-03-16T06:29:36.833Z,90.06
2024-03-16T06:30:32.258Z,90.00
2024-03-16T06:31:27.449Z,89.92
2024-03-16T06:32:23.061Z,89.84
2024-03-16T06:33:18.302Z,89.68
2024-03-16T06:34:18.528Z,89.59
2024-03-16T06:35:12.920Z,89.56
2024-03-16T06:36:08.314Z,89.44
2024-03-16T06:37:03.614Z,89.36
2024-03-16T06:37:59.134Z,89.18
2024-03-16T06:38:54.307Z,89.17
2024-03-16T06:39:49.857Z,89.13
2024-03-16T06:40:45.097Z,89.12
2024-03-16T06:41:40.551Z,89.17
2024-03-16T06:42:35.737Z,89.10
2024-03-16T06:43:31.019Z,89.05
2024-03-16T06:44:26.559Z,89.10
2024-03-16T06:45:21.779Z,89.13
2024-03-16T06:46:16.993Z,89.15
2024-03-16T06:47:12.361Z,89.18
2024-03-16T06:48:07.632Z,89.15
2024-03-16T06:49:02.788Z,89.17
2024-03-16T06:49:58.021Z,89.13
2024-03-16T06:50:53.451Z,89.16
2024-03-16T06:51:49.000Z,89.21
2024-03-16T06:52:44.785Z,89.21
2024-03-16T06:53:39.653Z,89.15
2024-03-16T06:54:35.073Z,89.23
2024-03-16T06:55:30.392Z,89.29
2024-03-16T06:56:25.723Z,89.17
2024-03-16T06:57:22.260Z,89.15
2024-03-16T06:58:17.556Z,89.09
2024-03-16T06:59:12.875Z,89.07
2024-03-16T07:00:08.161Z,89.04
2024-03-16T07:01:03.649Z,88.97
2024-03-16T07:01:59.069Z,88.95
2024-03-16T07:02:54.290Z,88.84
2024-03-16T07:03:49.716Z,88.91
2024-03-16T07:04:45.086Z,88.84
2024-03-16T07:05:40.513Z,88.83
2024-03-16T07:06:35.681Z,88.74
2024-03-16T07:07:30.783Z,88.76
2024-03-16T07:08:25.761Z,88.62
2024-03-16T07:09:20.826Z,88.55
2024-03-16T07:10:17.636Z,88.45
2024-03-16T07:11:12.664Z,88.40
2024-03-16T07:12:07.677Z,88.25
2024-03-16T07:13:02.740Z,88.19
2024-03-16T07:13:57.713Z,88.18
2024-03-16T07:14:52.833Z,88.12
2024-03-16T07:15:47.871Z,88.02
2024-03-16T07:16:43.084Z,87.92
2024-03-16T07:17:37.978Z,87.97
2024-03-16T07:18:32.984Z,88.00
2024-03-16T07:19:27.991Z,88.01
2024-03-16T07:20:23.038Z,88.00
2024-03-16T07:21:18.070Z,88.02
2024-03-16T07:22:13.393Z,87.90
2024-03-16T07:23:08.307Z,87.92
2024-03-16T07:24:03.402Z,87.87
2024-03-16T07:24:58.415Z,87.98
2024-03-16T07:25:53.491Z,87.92
2024-03-16T07:26:48.453Z,87.89
2024-03-16T07:27:43.515Z,87.93
2024-03-16T07:28:38.809Z,87.79
2024-03-16T07:29:34.271Z,87.82
2024-03-16T07:30:29.723Z,87.77
2024-03-16T07:31:24.994Z,87.75
2024-03-16T07:32:20.433Z,87.72
2024-03-16T07:33:15.725Z,87.75
2024-03-16T07:34:11.049Z,87.75
2024-03-16T07:35:06.454Z,87.75
2024-03-16T07:36:01.750Z,87.65
2024-03-16T07:36:57.234Z,87.56
2024-03-16T07:37:52.420Z,87.51
2024-03-16T07:38:47.875Z,87.46
2024-03-16T07:39:42.997Z,87.41
2024-03-16T07:40:38.682Z,87.41
2024-03-16T07:41:33.818Z,87.33
2024-03-16T07:42:29.293Z,87.18
2024-03-16T07:43:24.657Z,87.07
2024-03-16T07:44:19.879Z,87.01
2024-03-16T07:45:15.419Z,87.00
2024-03-16T07:46:11.592Z,86.94
2024-03-16T07:47:06.229Z,86.95
2024-03-16T07:48:01.766Z,86.86
2024-03-16T07:48:57.669Z,86.76
2024-03-16T07:49:52.303Z,86.66
2024-03-16T07:50:47.828Z,86.61
2024-03-16T07:51:43.830Z,86.42
2024-03-16T07:52:38.478Z,86.38
2024-03-16T07:53:33.748Z,86.33
2024-03-16T07:54:29.123Z,86.37
2024-03-16T07:55:24.303Z,86.40
2024-03-16T07:56:19.754Z,86.25
2024-03-16T07:57:15.159Z,86.30
2024-03-16T07:58:10.395Z,86.25
2024-03-16T07:59:05.866Z,86.29
2024-03-16T08:00:01.180Z,86.26
2024-03-16T08:00:56.664Z,86.08
2024-03-16T08:01:51.597Z,86.06
2024-03-16T08:02:46.721Z,85.97
2024-03-16T08:03:41.671Z,86.04
2024-03-16T08:04:36.738Z,85.60
2024-03-16T08:05:31.804Z,85.09
2024-03-16T08:06:27.529Z,83.89
2024-03-16T08:07:22.029Z,82.89
2024-03-16T08:08:17.394Z,82.05
2024-03-16T08:09:12.294Z,81.12
2024-03-16T08:10:07.480Z,80.57
2024-03-16T08:11:02.477Z,80.12
2024-03-16T08:11:57.508Z,79.02
2024-03-16T08:12:52.631Z,78.90
2024-03-16T08:13:48.092Z,78.83
2024-03-16T08:14:43.542Z,78.63
2024-03-16T08:15:39.042Z,78.57
2024-03-16T08:16:34.395Z,78.49
2024-03-16T08:17:30.817Z,78.62
2024-03-16T08:18:25.529Z,79.08
2024-03-16T08:19:20.842Z,79.53
2024-03-16T08:20:17.863Z,79.52
2024-03-16T08:21:11.665Z,79.45
2024-03-16T08:22:07.009Z,79.72
2024-03-16T08:23:03.074Z,79.98
2024-03-16T08:23:57.885Z,80.12
2024-03-16T08:24:53.293Z,79.92
2024-03-16T08:25:48.301Z,80.01
2024-03-16T08:26:43.377Z,79.89
2024-03-16T08:27:38.567Z,80.01
2024-03-16T08:28:33.746Z,79.71
2024-03-16T08:29:28.600Z,79.24
2024-03-16T08:30:23.670Z,79.15
2024-03-16T08:31:18.754Z,78.83
2024-03-16T08:32:13.860Z,78.97
2024-03-16T08:33:09.130Z,79.21
2024-03-16T08:34:04.081Z,78.98
2024-03-16T08:34:58.980Z,78.41
2024-03-16T08:35:54.048Z,79.07
2024-03-16T08:36:49.042Z,79.28
2024-03-16T08:37:44.059Z,79.25
2024-03-16T08:38:40.452Z,79.40
2024-03-16T08:39:35.352Z,79.57
2024-03-16T08:40:30.654Z,79.55
2024-03-16T08:41:25.629Z,79.65
2024-03-16T08:42:20.592Z,79.71
2024-03-16T08:43:15.642Z,79.81
2024-03-16T08:44:10.770Z,79.85
2024-03-16T08:45:05.748Z,79.78
2024-03-16T08:46:00.902Z,79.51
2024-03-16T08:46:55.777Z,79.56
2024-03-16T08:47:50.792Z,79.60
2024-03-16T08:48:46.922Z,80.09
2024-03-16T08:49:42.215Z,80.31
2024-03-16T08:50:37.841Z,80.36
2024-03-16T08:51:33.442Z,80.58
2024-03-16T08:52:28.949Z,80.79
2024-03-16T08:53:24.289Z,80.77
2024-03-16T08:54:19.653Z,80.91
2024-03-16T08:55:15.132Z,80.93
2024-03-16T08:56:10.358Z,81.01
2024-03-16T08:57:05.696Z,81.19
2024-03-16T08:58:01.310Z,81.28
2024-03-16T08:58:56.965Z,81.38
2024-03-16T08:59:52.109Z,81.30
2024-03-16T09:00:47.563Z,81.13
2024-03-16T09:01:44.341Z,80.99
2024-03-16T09:02:39.632Z,80.76
2024-03-16T09:03:35.257Z,80.20
2024-03-16T09:04:30.609Z,79.82
2024-03-16T09:05:26.035Z,79.69
2024-03-16T09:06:21.456Z,79.52
2024-03-16T09:07:16.683Z,79.76
2024-03-16T09:08:11.671Z,79.88
2024-03-16T09:09:06.955Z,80.06
2024-03-16T09:10:01.760Z,79.74
2024-03-16T09:10:56.848Z,79.35
2024-03-16T09:11:51.846Z,79.42
2024-03-16T09:12:46.888Z,79.41
2024-03-16T09:13:41.997Z,79.47
2024-03-16T09:14:36.872Z,79.52
2024-03-16T09:15:31.923Z,79.63
2024-03-16T09:16:26.990Z,79.78
2024-03-16T09:17:21.943Z,79.83
2024-03-16T09:18:17.066Z,79.88
2024-03-16T09:19:12.294Z,79.94
2024-03-16T09:20:07.192Z,79.74
2024-03-16T09:21:02.256Z,79.74
2024-03-16T09:21:57.395Z,79.86
2024-03-16T09:22:52.769Z,79.91
2024-03-16T09:25:16.660Z,80.82
2024-03-16T09:26:10.902Z,80.62
2024-03-16T09:27:09.294Z,80.38
2024-03-16T09:28:01.828Z,80.24
2024-03-16T09:28:57.245Z,80.13
2024-03-16T09:29:52.628Z,79.77
2024-03-16T09:30:48.263Z,79.79
2024-03-16T09:31:43.622Z,79.64
2024-03-16T09:32:39.064Z,79.47
2024-03-16T09:33:34.823Z,79.55
2024-03-16T09:34:30.475Z,80.02
2024-03-16T09:35:25.682Z,79.92
2024-03-16T09:36:20.904Z,78.69
2024-03-16T09:37:16.539Z,77.57
2024-03-16T09:38:12.140Z,76.61
2024-03-16T09:39:07.306Z,75.83
2024-03-16T09:40:03.068Z,75.13
2024-03-16T09:40:58.804Z,74.39
2024-03-16T09:41:54.117Z,74.15
2024-03-16T09:42:49.716Z,74.29
2024-03-16T09:43:45.428Z,73.95
2024-03-16T09:44:40.465Z,73.64
2024-03-16T09:45:36.061Z,73.69
2024-03-16T09:46:31.597Z,73.57
2024-03-16T09:47:27.136Z,73.23
2024-03-16T09:48:25.396Z,73.56
2024-03-16T09:49:18.278Z,73.80
2024-03-16T09:50:13.708Z,74.16
2024-03-16T09:51:09.284Z,74.47
2024-03-16T09:52:04.750Z,74.73
2024-03-16T09:53:00.475Z,74.82
2024-03-16T09:53:56.013Z,74.64
2024-03-16T09:54:51.519Z,74.36
2024-03-16T09:55:47.012Z,74.45
2024-03-16T09:56:42.592Z,74.17
2024-03-16T09:57:37.955Z,73.66
2024-03-16T09:58:33.758Z,73.77
2024-03-16T09:59:31.093Z,74.35
2024-03-16T10:00:24.608Z,74.15
2024-03-16T10:01:19.961Z,74.31
2024-03-16T10:02:15.360Z,73.26
2024-03-16T10:03:10.890Z,71.96
2024-03-16T10:04:06.557Z,71.15
2024-03-16T10:05:01.971Z,70.76
2024-03-16T10:05:57.506Z,70.17
2024-03-16T10:06:52.990Z,71.18
2024-03-16T10:07:48.452Z,72.11
2024-03-16T10:08:43.829Z,72.64
2024-03-16T10:09:39.190Z,72.86
2024-03-16T10:10:34.482Z,73.92
2024-03-16T10:11:30.191Z,74.62
2024-03-16T10:12:25.481Z,75.06
2024-03-16T10:13:21.082Z,75.28
2024-03-16T10:14:16.440Z,75.52
2024-03-16T10:15:11.926Z,75.73
2024-03-16T10:16:07.423Z,75.80
2024-03-16T10:17:02.785Z,76.06
2024-03-16T10:17:58.230Z,76.14
2024-03-16T10:18:53.707Z,76.07
2024-03-16T10:19:49.260Z,76.14
2024-03-16T10:20:44.888Z,76.20
2024-03-16T10:21:40.277Z,76.10
2024-03-16T10:22:35.665Z,76.14
2024-03-16T10:23:31.318Z,76.07
2024-03-16T10:24:27.099Z,76.10
2024-03-16T10:25:22.400Z,76.10
2024-03-16T10:26:18.533Z,75.97
2024-03-16T10:27:13.366Z,76.01
2024-03-16T10:28:09.014Z,75.95
2024-03-16T10:29:04.540Z,75.78
2024-03-16T10:29:59.821Z,75.86
2024-03-16T10:30:55.465Z,75.74
2024-03-16T10:31:54.985Z,75.82
2024-03-16T10:32:46.565Z,75.88
2024-03-16T10:33:41.946Z,76.25
2024-03-16T10:34:37.348Z,75.59
2024-03-16T10:35:32.706Z,75.01
2024-03-16T10:36:28.165Z,74.85
2024-03-16T10:37:23.554Z,74.57
2024-03-16T10:38:19.038Z,74.49
2024-03-16T10:39:14.709Z,74.22
2024-03-16T10:40:10.147Z,74.41
2024-03-16T10:41:05.572Z,74.53
2024-03-16T10:42:01.180Z,74.48
2024-03-16T10:42:56.741Z,74.57
2024-03-16T10:43:52.134Z,74.30
2024-03-16T10:44:47.802Z,74.62
2024-03-16T10:45:43.211Z,74.32
2024-03-16T10:46:38.613Z,73.93
2024-03-16T10:47:33.957Z,74.18
2024-03-16T10:48:29.624Z,74.46
2024-03-16T10:49:25.063Z,74.52
2024-03-16T10:50:20.743Z,74.91
2024-03-16T10:51:16.189Z,75.05
2024-03-16T10:52:12.158Z,75.23
2024-03-16T10:53:06.835Z,75.43
2024-03-16T10:54:02.188Z,75.42
2024-03-16T10:54:57.833Z,75.90
2024-03-16T10:55:53.209Z,75.82
2024-03-16T10:56:49.200Z,76.15
2024-03-16T10:57:44.797Z,77.12
2024-03-16T10:58:39.685Z,77.63
2024-03-16T10:59:34.965Z,78.22
2024-03-16T11:00:30.622Z,78.73
2024-03-16T11:01:25.798Z,79.52
2024-03-16T11:02:21.332Z,80.08
2024-03-16T11:03:16.694Z,80.47
2024-03-16T11:04:12.097Z,80.94
2024-03-16T11:05:07.533Z,81.36
2024-03-16T11:06:02.878Z,81.98
2024-03-16T11:06:58.389Z,82.55
2024-03-16T11:07:53.871Z,82.95
2024-03-16T11:08:49.386Z,83.29
2024-03-16T11:09:44.676Z,83.64
2024-03-16T11:10:40.397Z,84.06
2024-03-16T11:11:35.596Z,84.61
2024-03-16T11:12:31.061Z,84.86
2024-03-16T11:13:26.437Z,84.81
2024-03-16T11:14:22.026Z,84.68
2024-03-16T11:15:17.601Z,84.74
2024-03-16T11:16:13.010Z,85.02
2024-03-16T11:17:08.490Z,85.14
2024-03-16T11:18:04.104Z,85.24
2024-03-16T11:18:59.532Z,85.23
2024-03-16T11:19:57.388Z,84.92
2024-03-16T11:20:50.743Z,84.43
2024-03-16T11:21:46.139Z,83.97
2024-03-16T11:22:41.660Z,83.71
2024-03-16T11:23:37.024Z,83.78
2024-03-16T11:24:32.472Z,83.62
2024-03-16T11:25:28.046Z,83.57
2024-03-16T11:26:23.213Z,83.19
2024-03-16T11:27:18.705Z,82.89
2024-03-16T11:28:14.790Z,82.81
2024-03-16T11:29:09.666Z,82.53
2024-03-16T11:30:05.534Z,82.18
2024-03-16T11:31:00.597Z,81.79
2024-03-16T11:31:55.910Z,81.54
2024-03-16T11:32:51.424Z,81.87
2024-03-16T11:33:46.849Z,82.43
2024-03-16T11:34:42.332Z,82.57
2024-03-16T11:35:38.134Z,82.09
2024-03-16T11:36:33.597Z,80.75
2024-03-16T11:37:29.599Z,80.06
2024-03-16T11:38:24.255Z,77.53
2024-03-16T11:39:19.474Z,76.76
2024-03-16T11:40:15.063Z,75.82
2024-03-16T11:41:10.376Z,75.59
2024-03-16T11:42:05.977Z,73.30
2024-03-16T11:43:03.391Z,73.60
2024-03-16T11:43:57.851Z,74.04
2024-03-16T11:44:52.186Z,73.39
2024-03-16T11:45:47.683Z,74.01
2024-03-16T11:46:42.978Z,74.37
2024-03-16T11:47:38.506Z,73.51
2024-03-16T11:48:33.985Z,73.53
2024-03-16T11:49:29.461Z,72.77
2024-03-16T11:50:25.020Z,72.35
2024-03-16T11:51:20.232Z,71.62
2024-03-16T11:52:15.795Z,70.79
2024-03-16T11:53:11.356Z,71.90
2024-03-16T11:54:06.547Z,71.71